Time;durP1;ratioP1;P1;durP2;ratioP2;P2;SDS_P1;SDS_P2;PMS_P1;PMS_P2;Temp;Humidity;BMP_temperature;BMP_pressure;BME280_temperature;BME280_humidity;BME280_pressure;Samples;Min_cycle;Max_cycle;Signal;HPM_P1;HPM_P2
2023/11/13 00:00:05;;;;;;;13.90;5.72;;;5.80;76.20;;;;;;4814765;29;20126;-95
2023/11/13 00:02:34;;;;;;;11.60;5.30;;;5.70;76.30;;;;;;4829862;29;20467;-94
2023/11/13 00:05:05;;;;;;;13.65;5.90;;;5.70;76.00;;;;;;4814599;29;20042;-94
2023/11/13 00:07:32;;;;;;;11.55;5.60;;;5.70;76.30;;;;;;4829764;29;20050;-94
2023/11/13 00:09:59;;;;;;;11.05;5.00;;;5.80;76.30;;;;;;4814751;29;20081;-94
2023/11/13 00:12:27;;;;;;;11.68;5.70;;;5.80;76.10;;;;;;4814752;29;20057;-95
2023/11/13 00:14:54;;;;;;;12.57;6.00;;;5.80;76.10;;;;;;4815389;29;20416;-94
2023/11/13 00:17:21;;;;;;;12.70;5.82;;;5.90;75.90;;;;;;4829860;29;20065;-94
2023/11/13 00:19:48;;;;;;;13.38;5.68;;;5.80;75.80;;;;;;4829754;29;20122;-95
2023/11/13 00:22:15;;;;;;;12.15;6.20;;;5.80;76.20;;;;;;4829690;29;20049;-94
2023/11/13 00:24:43;;;;;;;13.57;6.15;;;5.80;76.10;;;;;;4815045;29;20046;-94
2023/11/13 00:27:10;;;;;;;12.03;6.37;;;5.80;76.10;;;;;;4814510;29;20045;-95
2023/11/13 00:29:37;;;;;;;12.93;5.80;;;5.80;76.10;;;;;;4814335;29;20074;-95
2023/11/13 00:32:05;;;;;;;13.40;6.85;;;5.70;76.30;;;;;;4829333;29;20057;-94
2023/11/13 00:34:32;;;;;;;15.35;6.18;;;5.70;76.40;;;;;;4814742;29;20106;-94
2023/11/13 00:36:59;;;;;;;11.32;5.20;;;5.70;76.70;;;;;;4829350;29;20106;-94
2023/11/13 00:39:27;;;;;;;12.80;6.50;;;5.70;76.50;;;;;;4814197;29;20577;-94
2023/11/13 00:41:55;;;;;;;11.77;5.55;;;5.80;76.50;;;;;;4814866;29;20486;-93
2023/11/13 00:44:25;;;;;;;10.60;5.70;;;5.70;76.30;;;;;;4814302;29;20046;-94
2023/11/13 00:46:52;;;;;;;12.93;5.22;;;5.70;76.20;;;;;;4814272;29;20507;-94
2023/11/13 00:49:19;;;;;;;12.15;6.22;;;5.70;76.40;;;;;;4829518;29;20050;-93
2023/11/13 00:51:46;;;;;;;13.53;5.90;;;5.70;76.40;;;;;;4814056;29;20144;-93
2023/11/13 00:54:13;;;;;;;11.48;5.50;;;5.70;76.50;;;;;;4830021;29;20065;-93
2023/11/13 00:56:43;;;;;;;12.15;5.88;;;5.70;76.50;;;;;;4814204;29;20074;-93
2023/11/13 00:59:11;;;;;;;13.45;5.60;;;5.70;76.50;;;;;;4813935;29;20426;-93
2023/11/13 01:01:38;;;;;;;11.00;5.60;;;5.70;76.60;;;;;;4814105;29;20393;-94
2023/11/13 01:04:06;;;;;;;14.07;6.40;;;5.70;76.40;;;;;;4814066;29;20079;-93
2023/11/13 01:06:33;;;;;;;15.82;5.82;;;5.70;76.40;;;;;;4813882;29;20141;-93
2023/11/13 01:09:00;;;;;;;14.20;6.43;;;5.70;76.50;;;;;;4828922;29;20046;-93
2023/11/13 01:11:27;;;;;;;13.10;6.20;;;5.70;76.40;;;;;;4813805;29;20050;-94
2023/11/13 01:13:55;;;;;;;12.10;5.50;;;5.80;76.30;;;;;;4813951;29;20578;-93
2023/11/13 01:16:22;;;;;;;11.07;5.43;;;5.70;76.20;;;;;;4828609;29;20054;-93
2023/11/13 01:18:53;;;;;;;14.00;6.05;;;5.70;76.20;;;;;;4814170;29;20497;-93
2023/11/13 01:21:24;;;;;;;14.02;5.57;;;5.60;76.40;;;;;;4813818;29;20074;-93
2023/11/13 01:23:51;;;;;;;12.23;6.05;;;5.70;76.50;;;;;;4813743;29;20102;-93
2023/11/13 01:26:18;;;;;;;12.85;6.20;;;5.60;76.20;;;;;;4813537;29;20110;-94
2023/11/13 01:28:48;;;;;;;12.20;5.60;;;5.70;76.40;;;;;;4828799;29;20157;-93
2023/11/13 01:31:15;;;;;;;12.18;6.35;;;5.60;76.50;;;;;;4813610;29;20050;-94
2023/11/13 01:33:43;;;;;;;13.18;6.75;;;5.70;76.50;;;;;;4813618;29;20074;-93
2023/11/13 01:36:13;;;;;;;13.23;6.78;;;5.80;76.20;;;;;;4813632;29;20113;-93
2023/11/13 01:38:40;;;;;;;11.88;6.05;;;5.70;76.10;;;;;;4813255;29;20118;-94
2023/11/13 01:41:07;;;;;;;13.63;6.60;;;5.70;76.10;;;;;;4813786;29;20050;-94
2023/11/13 01:43:34;;;;;;;12.82;5.55;;;5.70;76.20;;;;;;4813302;29;20049;-94
2023/11/13 01:46:02;;;;;;;12.50;6.03;;;5.50;76.20;;;;;;4813668;29;20145;-94
2023/11/13 01:48:29;;;;;;;12.98;5.97;;;5.40;76.50;;;;;;4813493;29;20054;-94
2023/11/13 01:50:57;;;;;;;14.23;5.80;;;5.40;76.80;;;;;;4813540;29;20050;-93
2023/11/13 01:53:25;;;;;;;14.07;6.07;;;5.40;76.90;;;;;;4827901;29;20094;-94
2023/11/13 01:55:56;;;;;;;12.80;6.15;;;5.40;76.90;;;;;;4813163;29;20090;-93
2023/11/13 01:58:24;;;;;;;13.65;5.95;;;5.40;76.80;;;;;;4813452;29;20470;-93
2023/11/13 02:03:54;;;;;;;12.18;5.97;;;5.40;76.70;;;;;;4908999;23;20060;-94
2023/11/13 02:06:22;;;;;;;11.63;5.60;;;5.30;76.70;;;;;;4828182;29;20054;-94
2023/11/13 02:08:49;;;;;;;13.70;5.32;;;5.30;76.60;;;;;;4813011;29;20045;-94
2023/11/13 02:11:18;;;;;;;12.85;6.28;;;5.30;76.50;;;;;;4828365;29;20053;-94
2023/11/13 02:13:47;;;;;;;11.32;4.88;;;5.30;76.60;;;;;;4812820;29;20142;-94
2023/11/13 02:16:15;;;;;;;13.43;5.97;;;5.30;76.50;;;;;;4828605;29;20049;-95
2023/11/13 02:18:42;;;;;;;10.97;4.93;;;5.30;76.50;;;;;;4813013;29;20050;-95
2023/11/13 02:21:09;;;;;;;11.88;5.47;;;5.20;76.70;;;;;;4828853;29;20547;-94
2023/11/13 02:23:36;;;;;;;12.00;5.93;;;5.10;77.00;;;;;;4812850;29;20062;-94
2023/11/13 02:26:16;;;;;;;13.07;5.97;;;5.10;77.10;;;;;;4827991;29;20054;-94
2023/11/13 02:28:44;;;;;;;12.45;6.25;;;5.20;77.10;;;;;;4828049;29;20106;-94
2023/11/13 02:31:14;;;;;;;15.33;6.07;;;5.10;77.20;;;;;;4827931;29;20042;-96
2023/11/13 02:33:41;;;;;;;13.27;5.53;;;5.10;77.00;;;;;;4828662;29;20054;-96
2023/11/13 02:36:09;;;;;;;15.82;6.72;;;5.10;77.10;;;;;;4827896;29;20054;-96
2023/11/13 02:38:36;;;;;;;11.02;5.25;;;5.00;77.20;;;;;;4812997;29;20102;-96
2023/11/13 02:41:04;;;;;;;12.48;5.90;;;5.00;77.40;;;;;;4828582;29;20126;-95
2023/11/13 02:43:31;;;;;;;12.90;5.80;;;4.90;77.60;;;;;;4828080;29;20144;-95
2023/11/13 02:45:59;;;;;;;12.98;6.30;;;4.90;77.70;;;;;;4828031;29;20062;-94
2023/11/13 02:48:26;;;;;;;12.13;5.82;;;5.00;77.60;;;;;;4829211;29;20077;-95
2023/11/13 02:50:53;;;;;;;10.52;5.20;;;5.00;77.60;;;;;;4816849;29;20056;-96
2023/11/13 02:53:22;;;;;;;12.73;5.60;;;5.00;77.50;;;;;;4818405;29;20113;-96
2023/11/13 02:55:51;;;;;;;12.83;5.80;;;4.90;77.50;;;;;;4817683;29;20152;-96
2023/11/13 02:58:19;;;;;;;11.88;5.43;;;4.90;77.70;;;;;;4836734;29;20079;-96
2023/11/13 03:00:49;;;;;;;12.25;5.88;;;4.90;77.60;;;;;;4824329;29;20054;-96
2023/11/13 03:03:26;;;;;;;13.02;6.18;;;4.90;77.80;;;;;;4829044;29;20081;-96
2023/11/13 03:06:06;;;;;;;11.38;5.80;;;4.90;77.80;;;;;;4847926;29;20050;-96
2023/11/13 03:08:35;;;;;;;13.43;6.17;;;4.90;77.70;;;;;;4831181;29;20058;-96
2023/11/13 03:11:03;;;;;;;13.13;5.70;;;4.90;77.70;;;;;;4827896;29;20054;-96
2023/11/13 03:45:46;;;;;;;11.27;5.22;;;4.50;78.70;;;;;;5687067;24;20080;-96
2023/11/13 03:52:41;;;;;;;12.18;5.63;;;4.50;78.40;;;;;;4840067;29;20068;-95
2023/11/13 03:55:09;;;;;;;12.07;4.93;;;4.50;78.30;;;;;;4822673;29;20051;-96
2023/11/13 04:02:18;;;;;;;10.90;5.10;;;4.40;78.20;;;;;;4844199;29;20572;-96
2023/11/13 04:04:51;;;;;;;11.98;5.18;;;4.40;78.30;;;;;;4813973;29;20077;-95
2023/11/13 04:07:24;;;;;;;12.55;5.15;;;4.40;78.20;;;;;;4810428;29;20051;-95
2023/11/13 04:09:52;;;;;;;12.07;5.53;;;4.40;78.00;;;;;;4810066;29;20054;-96
2023/11/13 04:12:20;;;;;;;12.35;5.13;;;4.40;78.00;;;;;;4809534;29;20055;-96
2023/11/13 04:14:48;;;;;;;11.02;5.82;;;4.50;77.80;;;;;;4826565;29;20601;-96
2023/11/13 04:17:19;;;;;;;12.27;5.20;;;4.50;77.60;;;;;;4814467;29;20061;-96
2023/11/13 04:19:49;;;;;;;10.82;4.93;;;4.40;77.70;;;;;;4809935;29;20062;-96
2023/11/13 04:22:18;;;;;;;12.00;5.57;;;4.30;77.80;;;;;;4813437;29;20084;-96
2023/11/13 04:24:54;;;;;;;11.15;4.93;;;4.20;78.10;;;;;;4811673;29;20066;-96
2023/11/13 04:27:23;;;;;;;13.88;6.13;;;4.00;78.60;;;;;;4810387;29;20161;-96
2023/11/13 04:29:51;;;;;;;11.52;5.75;;;4.00;78.80;;;;;;4810612;29;20053;-96
2023/11/13 04:32:19;;;;;;;11.85;5.38;;;4.00;78.80;;;;;;4811453;29;20057;-96
2023/11/13 04:34:52;;;;;;;12.47;6.07;;;4.00;78.70;;;;;;4810541;29;20054;-96
2023/11/13 04:37:23;;;;;;;12.63;5.90;;;4.00;78.90;;;;;;4823816;29;20450;-96
2023/11/13 04:39:52;;;;;;;11.15;5.40;;;4.00;78.90;;;;;;4807863;29;20078;-96
2023/11/13 04:42:20;;;;;;;12.18;5.53;;;3.90;79.00;;;;;;4823148;29;20054;-96
2023/11/13 04:44:48;;;;;;;13.75;6.05;;;3.90;79.10;;;;;;4805431;29;20058;-96
2023/11/13 04:47:20;;;;;;;13.67;6.10;;;4.00;79.00;;;;;;4809499;29;20089;-96
2023/11/13 04:49:49;;;;;;;13.30;5.88;;;4.00;78.80;;;;;;4808387;29;20160;-96
2023/11/13 04:52:18;;;;;;;12.57;6.40;;;4.00;78.60;;;;;;4808203;29;20058;-96
2023/11/13 04:54:52;;;;;;;13.55;5.32;;;4.00;78.50;;;;;;4807544;29;20046;-96
2023/11/13 04:57:20;;;;;;;12.20;5.88;;;4.10;78.40;;;;;;4825251;29;20050;-96
2023/11/13 04:59:50;;;;;;;11.97;5.70;;;4.00;78.20;;;;;;4826017;29;20122;-96
2023/11/13 05:02:19;;;;;;;11.70;5.38;;;4.00;78.20;;;;;;4794675;29;20055;-96
2023/11/13 05:04:49;;;;;;;11.18;5.15;;;3.80;78.50;;;;;;4809133;29;20078;-96
2023/11/13 05:41:37;;;;;;;11.45;4.45;;;;;;;;;;4834953;29;20106;-96
2023/11/13 05:44:06;;;;;;;14.07;5.30;;;;;;;;;;4812670;29;20459;-96
2023/11/13 05:46:34;;;;;;;13.77;5.40;;;;;;;;;;4797062;29;20485;-96
2023/11/13 05:49:05;;;;;;;12.20;5.72;;;;;;;;;;4798170;29;20054;-96
2023/11/13 05:51:32;;;;;;;12.50;5.38;;;;;;;;;;4814839;29;20051;-91
2023/11/13 05:54:00;;;;;;;12.55;5.32;;;;;;;;;;4809171;29;20042;-91
2023/11/13 05:56:31;;;;;;;12.98;5.88;;;;;;;;;;4795109;29;20520;-91
2023/11/13 05:59:03;;;;;;;11.73;5.23;;;;;;;;;;4794268;29;20114;-91
2023/11/13 06:01:31;;;;;;;13.68;5.75;;;;;;;;;;4794585;29;20470;-91
2023/11/13 06:03:59;;;;;;;16.17;6.35;;;;;;;;;;4809335;29;20521;-92
2023/11/13 06:06:28;;;;;;;13.52;5.55;;;;;;;;;;4910003;24;20058;-90
2023/11/13 06:08:55;;;;;;;13.73;6.03;;;;;;;;;;4810274;29;20062;-93
2023/11/13 06:11:24;;;;;;;13.40;5.90;;;;;;;;;;4827134;29;20519;-93
2023/11/13 06:13:51;;;;;;;13.82;6.28;;;3.90;78.70;;;;;;4811444;29;20046;-92
2023/11/13 06:16:20;;;;;;;18.80;6.68;;;4.00;78.70;;;;;;4793621;29;20051;-92
2023/11/13 06:18:50;;;;;;;18.02;7.00;;;4.00;78.20;;;;;;4796702;29;20050;-92
2023/11/13 06:21:19;;;;;;;15.93;6.95;;;4.10;78.10;;;;;;4818012;29;20138;-93
2023/11/13 06:23:53;;;;;;;13.63;6.40;;;4.00;78.50;;;;;;4806275;29;20046;-93
2023/11/13 06:26:20;;;;;;;20.83;8.07;;;4.00;78.90;;;;;;4794804;29;20046;-92
2023/11/13 06:28:48;;;;;;;16.08;7.72;;;4.00;79.00;;;;;;4809872;29;20066;-93
2023/11/13 06:31:15;;;;;;;14.98;6.10;;;4.10;78.80;;;;;;4808263;29;20050;-92
2023/11/13 06:33:44;;;;;;;14.43;5.28;;;4.10;78.80;;;;;;4785804;29;20106;-92
2023/11/13 06:36:11;;;;;;;13.33;4.80;;;4.10;78.60;;;;;;4810248;29;20050;-92
2023/11/13 06:38:38;;;;;;;13.52;5.60;;;4.20;78.30;;;;;;4801319;29;20042;-92
2023/11/13 06:41:07;;;;;;;12.90;5.63;;;4.10;78.30;;;;;;4798598;29;20501;-92
2023/11/13 06:43:37;;;;;;;13.48;5.53;;;4.10;78.40;;;;;;4816209;29;20054;-93
2023/11/13 06:46:04;;;;;;;13.25;5.60;;;4.10;78.40;;;;;;4804068;29;20049;-92
2023/11/13 06:48:32;;;;;;;11.97;5.67;;;4.20;78.50;;;;;;4809715;29;20055;-93
2023/11/13 06:51:00;;;;;;;12.93;5.22;;;;;;;;;;4814239;29;20513;-92
2023/11/13 06:53:27;;;;;;;12.55;5.70;;;;;;;;;;4807407;29;20054;-92
2023/11/13 06:55:55;;;;;;;10.38;4.93;;;;;;;;;;4808529;29;20127;-93
2023/11/13 06:58:23;;;;;;;12.27;5.30;;;;;;;;;;4808514;29;20080;-93
2023/11/13 07:00:54;;;;;;;11.13;5.50;;;;;;;;;;4817490;29;20049;-93
2023/11/13 07:03:24;;;;;;;10.77;4.82;;;;;;;;;;4799551;29;20078;-92
2023/11/13 07:05:53;;;;;;;14.50;6.72;;;;;;;;;;4812946;29;20106;-93
2023/11/13 07:08:21;;;;;;;13.07;6.00;;;;;;;;;;4833744;29;20045;-92
2023/11/13 07:10:50;;;;;;;14.82;5.63;;;;;;;;;;4845097;29;20128;-93
2023/11/13 07:13:18;;;;;;;16.67;6.67;;;;;;;;;;4843607;29;20054;-93
2023/11/13 07:15:46;;;;;;;16.95;6.28;;;;;;;;;;4827027;29;20524;-92
2023/11/13 07:18:14;;;;;;;16.88;6.57;;;;;;;;;;4832303;29;20073;-92
2023/11/13 07:20:44;;;;;;;19.77;6.40;;;5.30;77.00;;;;;;4830291;29;20397;-93
2023/11/13 07:23:16;;;;;;;13.25;6.50;;;5.40;77.20;;;;;;4830167;29;20057;-92
2023/11/13 07:25:45;;;;;;;14.77;6.30;;;5.50;77.20;;;;;;4828624;29;20053;-93
2023/11/13 07:28:15;;;;;;;14.35;5.90;;;5.60;76.10;;;;;;4823222;29;20069;-92
2023/11/13 07:30:44;;;;;;;19.65;5.55;;;5.60;76.00;;;;;;4812100;29;20041;-92
2023/11/13 07:33:11;;;;;;;13.38;6.30;;;5.70;75.70;;;;;;4833305;29;20046;-93
2023/11/13 07:35:40;;;;;;;13.75;6.05;;;5.70;75.50;;;;;;4812000;29;20046;-91
2023/11/13 07:38:09;;;;;;;14.93;7.17;;;5.80;75.10;;;;;;4808993;29;20501;-93
2023/11/13 07:40:37;;;;;;;15.50;6.28;;;5.80;74.90;;;;;;4793566;29;20058;-93
2023/11/13 07:43:08;;;;;;;12.82;6.25;;;5.90;75.20;;;;;;4823533;29;20115;-93
2023/11/13 07:45:38;;;;;;;13.43;6.22;;;5.90;74.70;;;;;;4811920;29;20442;-93
2023/11/13 07:48:05;;;;;;;14.70;6.20;;;5.90;75.50;;;;;;4826675;29;20057;-93
2023/11/13 07:50:33;;;;;;;12.40;5.03;;;5.90;74.60;;;;;;4828058;29;20050;-93
2023/11/13 07:53:20;;;;;;;12.10;5.60;;;5.90;74.20;;;;;;4817353;29;20069;-92
2023/11/13 07:55:47;;;;;;;11.93;4.93;;;5.90;74.60;;;;;;4821464;29;20061;-93
2023/11/13 07:58:14;;;;;;;11.98;4.75;;;5.90;74.60;;;;;;4831162;29;20054;-94
2023/11/13 08:00:41;;;;;;;11.73;5.05;;;6.00;74.50;;;;;;4830106;29;20049;-93
2023/11/13 08:10:24;;;;;;;16.98;5.93;;;6.20;74.10;;;;;;4861288;29;20093;-93
2023/11/13 08:12:53;;;;;;;15.18;5.95;;;6.40;74.00;;;;;;4847861;29;20049;-93
2023/11/13 08:15:20;;;;;;;20.55;6.85;;;6.50;74.60;;;;;;4818095;29;20500;-93
2023/11/13 08:17:52;;;;;;;15.13;6.90;;;6.70;73.30;;;;;;4831164;29;20053;-93
2023/11/13 08:20:25;;;;;;;13.30;6.97;;;6.80;72.90;;;;;;4814324;29;20050;-93
2023/11/13 08:22:57;;;;;;;15.52;6.25;;;6.90;73.60;;;;;;4818062;29;20099;-92
2023/11/13 08:25:25;;;;;;;14.25;6.25;;;6.90;73.30;;;;;;4824046;29;20050;-92
2023/11/13 08:27:52;;;;;;;13.70;6.32;;;6.90;72.60;;;;;;4810586;29;20041;-92
2023/11/13 08:30:22;;;;;;;17.63;6.90;;;7.00;72.80;;;;;;4812158;29;20046;-91
2023/11/13 08:32:52;;;;;;;16.02;6.63;;;7.00;72.80;;;;;;4817743;29;20057;-92
2023/11/13 08:35:20;;;;;;;15.40;7.15;;;7.10;73.30;;;;;;4837124;29;20523;-92
2023/11/13 08:37:47;;;;;;;13.23;6.30;;;7.20;72.90;;;;;;4819286;29;20057;-92
2023/11/13 08:40:17;;;;;;;12.45;5.93;;;7.30;72.50;;;;;;4822910;29;20065;-91
2023/11/13 08:42:46;;;;;;;18.60;6.07;;;7.30;71.40;;;;;;4826531;29;20416;-91
2023/11/13 08:45:15;;;;;;;11.70;5.60;;;7.40;71.60;;;;;;4813053;29;20501;-92
2023/11/13 08:47:47;;;;;;;14.10;5.82;;;7.40;72.30;;;;;;4816322;29;20530;-91
2023/11/13 08:50:16;;;;;;;12.95;6.10;;;7.50;71.80;;;;;;4820913;29;20136;-92
2023/11/13 08:52:46;;;;;;;11.88;5.40;;;7.70;71.00;;;;;;4836400;29;20056;-93
2023/11/13 08:55:17;;;;;;;9.83;4.90;;;7.90;70.50;;;;;;4832089;29;20453;-91
2023/11/13 08:57:47;;;;;;;14.40;5.10;;;7.90;69.90;;;;;;4822556;29;20137;-91
2023/11/13 09:00:20;;;;;;;11.30;4.43;;;7.80;70.60;;;;;;4830290;29;20058;-93
2023/11/13 09:02:50;;;;;;;11.20;4.63;;;7.80;70.20;;;;;;4815705;29;20050;-92
2023/11/13 09:05:19;;;;;;;12.30;4.75;;;;;;;;;;4838479;29;20140;-93
2023/11/13 09:07:46;;;;;;;11.37;3.97;;;7.80;70.20;;;;;;4833434;29;20060;-91
2023/11/13 09:10:16;;;;;;;19.10;15.68;;;7.90;70.20;;;;;;4835358;29;20056;-92
2023/11/13 09:12:44;;;;;;;11.88;6.22;;;;;;;;;;4834413;29;20071;-92
2023/11/13 09:15:13;;;;;;;11.73;4.60;;;8.00;70.10;;;;;;4830821;29;20056;-92
2023/11/13 09:17:43;;;;;;;10.30;5.55;;;;;;;;;;4837609;29;20110;-92
2023/11/13 09:20:15;;;;;;;10.40;4.50;;;8.00;69.60;;;;;;4806079;29;20084;-92
2023/11/13 09:22:43;;;;;;;10.45;4.25;;;8.10;69.90;;;;;;4823702;29;20041;-92
2023/11/13 09:25:14;;;;;;;10.25;4.32;;;8.20;68.70;;;;;;4818198;29;20046;-92
2023/11/13 09:27:46;;;;;;;8.43;3.45;;;8.20;69.10;;;;;;4810271;29;20061;-92
2023/11/13 09:30:20;;;;;;;7.90;2.90;;;8.40;69.10;;;;;;4820190;29;20088;-92
2023/11/13 09:32:49;;;;;;;9.13;3.40;;;8.40;67.10;;;;;;4819359;29;20427;-92
2023/11/13 09:35:24;;;;;;;9.43;3.65;;;8.50;67.90;;;;;;4820714;29;20068;-92
2023/11/13 09:37:56;;;;;;;10.10;4.25;;;8.50;68.30;;;;;;4816542;29;20053;-93
2023/11/13 09:40:34;;;;;;;8.73;3.17;;;8.50;66.40;;;;;;4813161;29;20054;-91
2023/11/13 09:43:14;;;;;;;6.80;3.15;;;8.40;66.40;;;;;;4841182;29;20061;-94
2023/11/13 09:45:46;;;;;;;8.50;3.10;;;8.40;66.40;;;;;;4827102;29;21147;-92
2023/11/13 09:48:18;;;;;;;7.57;2.70;;;8.50;66.70;;;;;;4830171;29;20129;-88
2023/11/13 09:50:46;;;;;;;6.45;2.53;;;8.60;66.70;;;;;;4820031;29;20133;-93
2023/11/13 09:57:20;;;;;;;7.13;3.10;;;8.60;66.20;;;;;;4845244;29;20081;-93
2023/11/13 09:59:51;;;;;;;9.33;2.70;;;8.60;65.80;;;;;;4827800;29;20050;-93
2023/11/13 10:02:20;;;;;;;6.68;2.60;;;8.70;65.30;;;;;;4812709;29;20102;-92
2023/11/13 10:04:47;;;;;;;7.57;3.03;;;8.70;66.10;;;;;;4812529;29;20102;-93
2023/11/13 10:07:16;;;;;;;8.30;2.45;;;8.70;65.60;;;;;;4827469;29;20069;-92
2023/11/13 10:10:04;;;;;;;11.45;4.18;;;8.80;66.20;;;;;;4812444;29;20149;-92
2023/11/13 10:12:35;;;;;;;8.33;2.63;;;8.90;66.30;;;;;;4812239;29;20061;-92
2023/11/13 10:15:08;;;;;;;7.35;2.50;;;8.90;65.90;;;;;;4812481;29;20471;-92
2023/11/13 10:17:42;;;;;;;6.30;2.35;;;;;;;;;;4812826;29;20054;-92
2023/11/13 10:20:14;;;;;;;6.00;2.17;;;8.90;64.80;;;;;;4813033;29;20535;-92
2023/11/13 10:22:41;;;;;;;9.80;4.45;;;8.80;65.10;;;;;;4827866;29;20046;-92
2023/11/13 10:25:11;;;;;;;9.43;3.27;;;8.80;65.40;;;;;;4827879;29;20057;-92
2023/11/13 10:27:44;;;;;;;10.43;5.38;;;8.90;65.50;;;;;;4812717;29;20050;-92
2023/11/13 10:30:12;;;;;;;11.05;3.70;;;8.90;65.00;;;;;;4812725;29;20060;-92
2023/11/13 10:32:39;;;;;;;6.35;2.50;;;8.90;64.90;;;;;;4808866;29;20136;-91
2023/11/13 10:35:09;;;;;;;6.60;2.00;;;;;;;;;;4812590;29;20054;-93
2023/11/13 10:37:38;;;;;;;8.80;2.40;;;;;;;;;;4812887;29;20149;-92
2023/11/13 10:40:07;;;;;;;7.18;2.38;;;;;;;;;;4812528;29;20458;-92
2023/11/13 10:42:36;;;;;;;5.88;2.38;;;;;;;;;;4827786;29;20061;-93
2023/11/13 10:45:05;;;;;;;5.25;2.08;;;9.10;65.10;;;;;;4827449;29;20420;-93
2023/11/13 10:47:35;;;;;;;6.28;2.17;;;9.20;64.20;;;;;;4812309;29;20116;-93
2023/11/13 10:50:15;;;;;;;5.17;1.80;;;9.20;63.70;;;;;;4827356;29;20058;-92
2023/11/13 10:52:44;;;;;;;6.00;2.00;;;9.20;64.70;;;;;;4827543;29;20527;-93
2023/11/13 10:55:13;;;;;;;7.65;2.50;;;9.10;64.00;;;;;;4824823;29;20578;-92
2023/11/13 10:57:41;;;;;;;7.82;2.20;;;9.10;63.50;;;;;;4810251;29;20063;-93
2023/11/13 11:00:12;;;;;;;6.85;2.40;;;9.00;64.20;;;;;;4812465;29;20060;-93
2023/11/13 11:02:48;;;;;;;6.67;2.30;;;9.10;64.40;;;;;;4812507;29;20079;-92
2023/11/13 11:05:24;;;;;;;7.10;2.33;;;9.10;63.30;;;;;;4812603;29;20578;-93
2023/11/13 11:07:53;;;;;;;6.57;2.08;;;9.00;63.80;;;;;;4828628;29;20098;-93
2023/11/13 11:10:24;;;;;;;6.75;2.40;;;9.00;64.60;;;;;;4830390;29;20045;-92
2023/11/13 11:13:01;;;;;;;7.45;2.83;;;9.00;64.60;;;;;;4830491;29;20053;-92
2023/11/13 11:16:04;;;;;;;7.73;2.80;;;9.10;64.30;;;;;;4830812;29;20568;-92
2023/11/13 11:18:58;;;;;;;6.32;2.58;;;9.20;65.10;;;;;;4830500;29;20412;-92
2023/11/13 11:21:25;;;;;;;6.18;2.25;;;9.30;64.60;;;;;;4803495;29;20051;-92
2023/11/13 11:24:04;;;;;;;6.40;2.50;;;9.40;64.70;;;;;;4830431;29;20042;-93
2023/11/13 11:27:01;;;;;;;6.97;2.55;;;9.40;64.50;;;;;;4832998;29;20046;-93
2023/11/13 11:29:33;;;;;;;10.30;3.13;;;9.50;63.50;;;;;;4833830;29;20046;-93
2023/11/13 11:32:18;;;;;;;7.03;2.70;;;9.40;63.80;;;;;;4834161;29;20049;-92
2023/11/13 11:35:02;;;;;;;6.07;2.55;;;9.40;63.90;;;;;;4833729;29;20049;-93
2023/11/13 11:37:30;;;;;;;7.22;2.60;;;9.40;63.50;;;;;;4833943;29;20121;-93
2023/11/13 11:40:03;;;;;;;6.85;2.58;;;9.40;63.70;;;;;;4833497;29;20045;-93
2023/11/13 11:42:32;;;;;;;7.10;2.90;;;9.40;63.70;;;;;;4848912;29;20058;-92
2023/11/13 11:45:01;;;;;;;7.05;2.90;;;9.40;63.90;;;;;;4833379;29;20057;-93
2023/11/13 11:47:36;;;;;;;10.02;5.00;;;9.50;63.70;;;;;;4834053;29;20571;-93
2023/11/13 11:50:13;;;;;;;10.07;4.35;;;9.50;62.40;;;;;;4848901;29;20630;-92
2023/11/13 11:52:55;;;;;;;8.15;3.58;;;9.50;64.00;;;;;;4833677;29;20111;-93
2023/11/13 11:55:23;;;;;;;8.47;3.03;;;9.50;63.90;;;;;;4833237;29;20081;-92
2023/11/13 11:57:51;;;;;;;7.03;2.92;;;9.50;63.60;;;;;;4833925;29;20109;-93
2023/11/13 12:00:25;;;;;;;7.63;3.00;;;9.50;64.00;;;;;;4833278;29;20148;-93
2023/11/13 12:02:55;;;;;;;9.15;2.88;;;9.50;63.70;;;;;;4833560;29;20054;-93
2023/11/13 12:05:23;;;;;;;9.05;3.35;;;9.60;64.20;;;;;;4833458;29;20050;-92
2023/11/13 12:07:51;;;;;;;7.03;3.07;;;9.50;63.50;;;;;;4833166;29;20050;-93
2023/11/13 12:10:21;;;;;;;7.55;3.00;;;9.50;63.60;;;;;;4833017;29;20050;-93
2023/11/13 12:12:50;;;;;;;8.52;2.92;;;9.60;65.00;;;;;;4833176;29;20087;-94
2023/11/13 12:15:18;;;;;;;6.18;2.70;;;9.60;64.70;;;;;;4832990;29;20045;-93
2023/11/13 12:17:46;;;;;;;8.52;3.10;;;9.60;64.50;;;;;;4833206;29;20512;-92
2023/11/13 12:20:16;;;;;;;9.10;3.37;;;9.60;64.30;;;;;;4848144;29;20497;-92
2023/11/13 12:22:49;;;;;;;7.93;2.97;;;9.60;64.70;;;;;;4833976;29;20180;-93
2023/11/13 12:25:17;;;;;;;7.78;2.90;;;9.70;64.10;;;;;;4833139;29;20053;-93
2023/11/13 12:27:47;;;;;;;8.05;2.90;;;9.80;63.80;;;;;;4832856;29;20045;-94
2023/11/13 12:30:23;;;;;;;7.78;3.10;;;9.80;63.10;;;;;;4833049;29;20049;-93
2023/11/13 12:32:51;;;;;;;9.37;3.30;;;9.90;64.20;;;;;;4833175;29;20529;-93
2023/11/13 12:35:22;;;;;;;9.90;4.55;;;9.90;63.60;;;;;;4833024;29;20049;-93
2023/11/13 12:37:51;;;;;;;7.40;3.28;;;9.80;63.20;;;;;;4832515;29;20408;-92
2023/11/13 12:40:20;;;;;;;8.13;3.50;;;9.70;64.30;;;;;;4828129;29;20061;-93
2023/11/13 12:42:50;;;;;;;9.40;3.83;;;9.70;65.00;;;;;;4814513;29;20125;-94
2023/11/13 12:45:18;;;;;;;10.30;6.27;;;9.50;63.70;;;;;;4829762;29;20046;-93
2023/11/13 12:47:47;;;;;;;7.32;3.75;;;9.50;63.70;;;;;;4814085;29;20057;-93
2023/11/13 12:50:19;;;;;;;9.52;4.70;;;9.40;63.60;;;;;;4829390;29;20054;-93
2023/11/13 12:52:54;;;;;;;7.65;3.50;;;9.40;63.80;;;;;;4814065;29;20074;-93
2023/11/13 12:55:23;;;;;;;10.85;3.92;;;9.30;63.90;;;;;;4814185;29;20068;-93
2023/11/13 12:57:53;;;;;;;11.10;3.93;;;9.30;64.00;;;;;;4814367;29;20058;-93
2023/11/13 13:00:21;;;;;;;7.15;3.65;;;9.30;64.10;;;;;;4814501;29;20142;-93
2023/11/13 13:02:52;;;;;;;9.00;3.30;;;9.40;64.60;;;;;;4814155;29;20050;-93
2023/11/13 13:05:24;;;;;;;9.38;3.70;;;9.30;65.00;;;;;;4814420;29;20053;-93
2023/11/13 13:08:01;;;;;;;8.07;3.47;;;9.30;65.00;;;;;;4814442;29;20057;-93
2023/11/13 13:10:33;;;;;;;8.27;3.30;;;9.30;65.00;;;;;;4813974;29;20106;-93
2023/11/13 13:13:04;;;;;;;8.05;3.15;;;9.30;65.50;;;;;;4813979;29;20171;-93
2023/11/13 13:15:32;;;;;;;9.15;3.30;;;9.30;65.20;;;;;;4814356;29;20085;-93
2023/11/13 13:17:59;;;;;;;7.80;2.80;;;9.20;65.30;;;;;;4814025;29;20081;-93
2023/11/13 13:20:29;;;;;;;8.57;3.15;;;9.20;64.90;;;;;;4813581;29;20058;-93
2023/11/13 13:22:59;;;;;;;6.73;2.50;;;9.20;64.00;;;;;;4813895;29;20102;-93
2023/11/13 13:25:32;;;;;;;8.15;3.22;;;9.20;64.20;;;;;;4828549;29;20416;-93
2023/11/13 13:28:03;;;;;;;8.23;3.10;;;9.20;64.70;;;;;;4813415;29;20106;-93
2023/11/13 13:30:33;;;;;;;6.97;2.90;;;9.20;64.60;;;;;;4813775;29;20049;-93
2023/11/13 13:33:06;;;;;;;8.60;3.55;;;9.20;64.00;;;;;;4813585;29;20073;-94
2023/11/13 13:35:33;;;;;;;7.37;3.27;;;9.10;64.10;;;;;;4813444;29;20050;-93
2023/11/13 13:38:00;;;;;;;7.60;3.22;;;9.20;64.50;;;;;;4813768;29;20057;-90
2023/11/13 13:40:28;;;;;;;8.05;3.38;;;9.20;64.10;;;;;;4813787;29;20050;-93
2023/11/13 13:42:58;;;;;;;8.43;3.33;;;9.20;64.20;;;;;;4813545;29;20058;-93
2023/11/13 13:45:27;;;;;;;9.38;3.50;;;9.20;64.00;;;;;;4813519;29;20054;-93
2023/11/13 13:47:56;;;;;;;12.23;4.13;;;9.30;64.50;;;;;;4812299;29;20049;-93
2023/11/13 13:50:24;;;;;;;11.35;4.80;;;9.20;64.90;;;;;;4813598;29;20046;-94
2023/11/13 13:52:56;;;;;;;11.00;5.10;;;9.10;65.20;;;;;;4813530;29;20091;-93
2023/11/13 13:55:29;;;;;;;13.43;3.90;;;9.00;66.10;;;;;;4813161;29;20061;-93
2023/11/13 13:58:02;;;;;;;17.02;6.35;;;8.90;67.10;;;;;;4828101;29;20108;-93
2023/11/13 14:00:32;;;;;;;20.40;7.50;;;8.80;67.10;;;;;;4813420;29;20100;-94
2023/11/13 14:03:07;;;;;;;26.17;9.10;;;8.80;67.00;;;;;;4813708;29;20468;-94
2023/11/13 14:05:38;;;;;;;15.82;7.38;;;8.70;67.40;;;;;;4813682;29;20049;-93
2023/11/13 14:08:05;;;;;;;13.70;6.35;;;8.70;67.00;;;;;;4812601;29;20074;-93
2023/11/13 14:10:34;;;;;;;16.55;6.72;;;8.60;66.90;;;;;;4813214;29;20527;-93
2023/11/13 14:13:05;;;;;;;11.33;6.40;;;8.60;67.00;;;;;;4813024;29;20103;-93
2023/11/13 14:15:35;;;;;;;10.35;4.97;;;8.50;67.70;;;;;;4828063;29;20134;-93
2023/11/13 14:18:11;;;;;;;12.90;5.55;;;8.40;68.40;;;;;;4813009;29;20493;-93
2023/11/13 14:20:38;;;;;;;14.93;6.75;;;8.30;68.60;;;;;;4812919;29;20054;-93
2023/11/13 14:23:06;;;;;;;15.25;6.40;;;8.40;68.50;;;;;;4827751;29;20107;-92
2023/11/13 14:25:33;;;;;;;12.60;5.33;;;8.30;68.20;;;;;;4827654;29;20148;-93
2023/11/13 14:28:00;;;;;;;12.80;5.65;;;8.30;68.00;;;;;;4812746;29;20054;-93
2023/11/13 14:30:30;;;;;;;10.57;5.07;;;8.20;68.10;;;;;;4812389;29;20458;-94
2023/11/13 14:33:00;;;;;;;14.02;6.55;;;8.10;68.70;;;;;;4812443;29;20394;-93
2023/11/13 14:35:30;;;;;;;14.77;7.20;;;8.10;68.70;;;;;;4827427;29;20145;-93
2023/11/13 14:37:57;;;;;;;14.53;6.87;;;8.00;68.90;;;;;;4812626;29;20111;-92
2023/11/13 14:40:26;;;;;;;13.50;6.63;;;8.00;69.20;;;;;;4827441;29;20050;-92
2023/11/13 14:42:53;;;;;;;17.27;7.88;;;8.00;69.30;;;;;;4812589;29;20587;-94